Time;durP1;ratioP1;P1;durP2;ratioP2;P2;SDS_P1;SDS_P2;PMS_P1;PMS_P2;Temp;Humidity;BMP_temperature;BMP_pressure;BME280_temperature;BME280_humidity;BME280_pressure;Samples;Min_cycle;Max_cycle;Signal;HPM_P1;HPM_P2
2021/07/27 00:01:08;;;;;;;6.87;3.23;;;;;;;17.80;100.00;-19628.56;5081165;28;20069;-71
2021/07/27 00:03:33;;;;;;;9.60;3.90;;;;;;;17.81;100.00;-19628.81;5084092;28;20469;-70
2021/07/27 00:05:59;;;;;;;9.17;3.97;;;;;;;17.77;100.00;-19627.66;5080824;28;20024;-70
2021/07/27 00:08:24;;;;;;;7.57;3.63;;;;;;;17.74;100.00;-19626.88;5083043;28;20084;-70
2021/07/27 00:10:50;;;;;;;7.13;3.87;;;;;;;17.72;100.00;-19626.47;5081396;28;20016;-70
2021/07/27 00:13:15;;;;;;;7.80;4.00;;;;;;;17.65;100.00;-19624.50;5081906;28;20443;-70
2021/07/27 00:15:42;;;;;;;7.97;4.10;;;;;;;17.63;100.00;-19624.00;5066558;28;20048;-70
2021/07/27 00:18:08;;;;;;;7.57;3.87;;;;;;;17.56;100.00;-19622.44;5060628;28;20021;-70
2021/07/27 00:20:34;;;;;;;8.27;4.50;;;;;;;17.51;100.00;-19621.00;5063202;28;20082;-70
2021/07/27 00:22:59;;;;;;;9.90;4.70;;;;;;;17.40;100.00;-19618.25;5080869;28;20042;-70
2021/07/27 00:25:25;;;;;;;10.20;4.63;;;;;;;17.28;100.00;-19615.13;5079549;28;20344;-70
2021/07/27 00:27:50;;;;;;;10.20;4.80;;;;;;;17.16;100.00;-19612.13;5079076;28;20076;-70
2021/07/27 00:30:16;;;;;;;9.97;5.43;;;;;;;17.05;100.00;-19609.13;5069774;28;20044;-70
2021/07/27 00:32:43;;;;;;;9.97;5.63;;;;;;;16.97;100.00;-19607.16;5072734;28;20366;-70
2021/07/27 00:35:11;;;;;;;10.93;5.40;;;;;;;16.89;100.00;-19605.19;5064354;28;20040;-70
2021/07/27 00:37:42;;;;;;;13.23;4.93;;;;;;;16.84;100.00;-19603.91;5066430;28;20600;-70
2021/07/27 00:40:09;;;;;;;9.30;5.00;;;;;;;16.75;100.00;-19601.53;5066596;28;20024;-70
2021/07/27 00:42:44;;;;;;;8.53;5.00;;;;;;;16.70;100.00;-19600.22;5070120;28;20028;-70
2021/07/27 00:45:11;;;;;;;8.57;4.77;;;;;;;16.62;100.00;-19598.28;5066622;28;20211;-70
2021/07/27 00:47:36;;;;;;;9.70;5.10;;;;;;;16.59;100.00;-19597.47;5071066;28;20039;-70
2021/07/27 00:50:02;;;;;;;8.90;4.70;;;;;;;16.60;100.00;-19597.63;5063333;28;20612;-70
2021/07/27 00:52:29;;;;;;;11.13;5.67;;;;;;;16.67;100.00;-19599.44;5066168;28;20024;-70
2021/07/27 00:54:54;;;;;;;10.80;5.60;;;;;;;16.69;100.00;-19600.09;5068606;28;20109;-70
2021/07/27 00:57:22;;;;;;;12.13;5.40;;;;;;;16.74;100.00;-19601.16;5070181;28;20024;-70
2021/07/27 00:59:48;;;;;;;13.13;5.67;;;;;;;16.79;100.00;-19602.59;5063307;28;20029;-71
2021/07/27 01:02:14;;;;;;;11.63;6.00;;;;;;;16.90;100.00;-19605.47;5070598;28;20043;-70
2021/07/27 01:04:39;;;;;;;11.97;5.87;;;;;;;17.10;100.00;-19610.41;5081251;28;20089;-70
2021/07/27 01:07:05;;;;;;;12.20;5.90;;;;;;;17.14;100.00;-19611.47;5082576;28;20024;-70
2021/07/27 01:09:31;;;;;;;11.87;5.63;;;;;;;17.12;100.00;-19610.94;5062661;28;20025;-70
2021/07/27 01:11:59;;;;;;;11.77;5.83;;;;;;;17.11;100.00;-19610.69;5061991;28;20028;-70
2021/07/27 01:14:25;;;;;;;12.43;5.80;;;;;;;17.07;100.00;-19609.75;5065857;28;20477;-71
2021/07/27 01:16:50;;;;;;;13.53;5.90;;;;;;;17.00;100.00;-19607.94;5069511;28;20028;-70
2021/07/27 01:19:39;;;;;;;14.87;6.10;;;;;;;16.95;100.00;-19606.75;5061988;28;20055;-70
2021/07/27 01:38:54;;;;;;;9.67;5.30;;;;;;;16.99;100.00;-19607.81;5074387;28;20039;-71
2021/07/27 01:42:08;;;;;;;11.57;5.50;;;;;;;16.76;100.00;-19601.81;5066351;28;20492;-70
2021/07/27 01:44:06;;;;;;;12.20;6.30;;;;;;;16.63;100.00;-19598.53;5054569;28;20102;-72
2021/07/27 01:46:37;;;;;;;12.43;6.10;;;;;;;16.59;100.00;-19597.34;5068457;28;20544;-72
2021/07/27 01:49:04;;;;;;;11.40;5.97;;;;;;;16.60;100.00;-19597.63;5075477;28;20056;-71
2021/07/27 01:51:31;;;;;;;13.20;6.40;;;;;;;16.66;100.00;-19599.19;5069273;28;20020;-71
2021/07/27 01:53:57;;;;;;;12.63;5.90;;;;;;;16.73;100.00;-19600.88;5074801;28;20380;-71
2021/07/27 01:56:23;;;;;;;13.70;6.80;;;;;;;16.77;100.00;-19601.94;5068635;28;20028;-71
2021/07/27 01:58:52;;;;;;;14.37;6.37;;;;;;;16.77;100.00;-19602.06;5074889;28;20016;-72
2021/07/27 02:01:23;;;;;;;10.50;5.27;;;;;;;16.78;100.00;-19602.31;5073181;28;20038;-72
2021/07/27 02:03:48;;;;;;;15.90;6.00;;;;;;;16.80;100.00;-19602.84;5071560;28;20036;-71
2021/07/27 02:06:16;;;;;;;12.00;6.63;;;;;;;16.78;100.00;-19602.31;5069365;28;20028;-72
2021/07/27 02:08:42;;;;;;;12.60;6.27;;;;;;;16.81;100.00;-19603.09;5073203;28;20028;-72
2021/07/27 02:11:11;;;;;;;13.23;6.33;;;;;;;16.82;100.00;-19603.38;5083788;28;20016;-71
2021/07/27 02:13:49;;;;;;;13.63;6.03;;;;;;;16.82;100.00;-19603.38;5068393;28;20066;-71
2021/07/27 02:16:15;;;;;;;13.87;6.23;;;;;;;16.81;100.00;-19602.97;5071327;28;20052;-72
2021/07/27 02:18:40;;;;;;;15.60;6.43;;;;;;;16.78;100.00;-19602.31;5084724;28;20050;-71
2021/07/27 02:21:06;;;;;;;13.83;6.63;;;;;;;16.81;100.00;-19603.09;5084997;28;20483;-71
2021/07/27 02:23:31;;;;;;;12.23;6.47;;;;;;;16.83;100.00;-19603.63;5093306;28;20103;-71
2021/07/27 02:25:57;;;;;;;15.23;6.63;;;;;;;16.78;100.00;-19602.19;5084549;28;20492;-71
2021/07/27 02:28:22;;;;;;;15.50;7.17;;;;;;;16.74;100.00;-19601.16;5087124;28;20556;-71
2021/07/27 02:30:55;;;;;;;13.73;6.77;;;;;;;16.66;100.00;-19599.31;5084862;28;20031;-71
2021/07/27 02:33:21;;;;;;;13.97;6.83;;;;;;;16.60;100.00;-19597.63;5092589;28;20062;-71
2021/07/27 02:35:47;;;;;;;14.63;7.07;;;;;;;16.58;100.00;-19597.09;5084509;28;20059;-71
2021/07/27 02:38:12;;;;;;;14.60;6.90;;;;;;;16.56;100.00;-19596.56;5092848;28;20078;-71
2021/07/27 02:40:38;;;;;;;13.40;6.83;;;;;;;16.56;100.00;-19596.56;5084817;28;20078;-71
2021/07/27 02:43:04;;;;;;;13.93;6.77;;;;;;;16.60;100.00;-19597.75;5093038;28;20027;-71
2021/07/27 02:45:31;;;;;;;13.07;6.50;;;;;;;16.61;100.00;-19597.88;5083566;28;20023;-71
2021/07/27 02:47:57;;;;;;;17.33;7.20;;;;;;;16.63;100.00;-19598.41;5091913;28;20712;-71
2021/07/27 02:50:27;;;;;;;13.63;6.80;;;;;;;16.65;100.00;-19598.94;5084453;28;20028;-71
2021/07/27 02:52:53;;;;;;;14.00;6.97;;;;;;;16.67;100.00;-19599.59;5090989;28;20419;-71
2021/07/27 02:55:19;;;;;;;16.77;6.97;;;;;;;16.69;100.00;-19599.97;5084635;28;20055;-72
2021/07/27 02:57:45;;;;;;;15.57;7.03;;;;;;;16.74;100.00;-19601.28;5084990;28;20063;-71
2021/07/27 03:00:11;;;;;;;14.23;6.20;;;;;;;16.74;100.00;-19601.16;5084574;28;20051;-70
2021/07/27 03:02:38;;;;;;;14.90;6.90;;;;;;;16.77;100.00;-19602.06;5085439;28;20032;-70
2021/07/27 03:05:05;;;;;;;16.63;6.80;;;;;;;16.84;100.00;-19603.91;5084201;28;20119;-70
2021/07/27 03:07:50;;;;;;;16.73;7.20;;;;;;;16.83;100.00;-19603.63;5085000;28;20036;-70
2021/07/27 03:10:20;;;;;;;12.90;6.47;;;;;;;16.83;100.00;-19603.50;5083854;28;20066;-70
2021/07/27 03:12:52;;;;;;;14.33;7.47;;;;;;;16.81;100.00;-19603.09;5085316;28;20054;-70
2021/07/27 03:15:18;;;;;;;17.13;6.57;;;;;;;16.81;100.00;-19603.09;5083904;28;20068;-70
2021/07/27 03:17:44;;;;;;;16.23;6.90;;;;;;;16.80;100.00;-19602.72;5083587;28;20039;-70
2021/07/27 03:20:11;;;;;;;14.00;6.80;;;;;;;16.82;100.00;-19603.38;5083236;28;20704;-70
2021/07/27 03:22:37;;;;;;;12.43;6.47;;;;;;;16.85;100.00;-19604.16;5089242;28;20445;-70
2021/07/27 03:25:18;;;;;;;14.80;6.57;;;;;;;16.82;100.00;-19603.38;5082753;28;20097;-70
2021/07/27 03:27:49;;;;;;;15.40;7.07;;;;;;;16.83;100.00;-19603.63;5087137;28;20034;-70
2021/07/27 03:30:16;;;;;;;13.20;6.30;;;;;;;16.82;100.00;-19603.38;5088395;28;20428;-71
2021/07/27 03:32:42;;;;;;;14.50;6.40;;;;;;;16.81;100.00;-19603.09;5097024;28;20482;-70
2021/07/27 03:35:08;;;;;;;14.10;7.57;;;;;;;16.78;100.00;-19602.19;5085717;28;20097;-70
2021/07/27 03:37:34;;;;;;;16.97;7.00;;;;;;;16.73;100.00;-19601.03;5089655;28;20026;-73
2021/07/27 03:40:01;;;;;;;13.40;6.60;;;;;;;16.70;100.00;-19600.38;5087950;28;20524;-70
2021/07/27 03:42:27;;;;;;;14.43;6.17;;;;;;;16.70;100.00;-19600.22;5087398;28;20071;-70
2021/07/27 03:44:56;;;;;;;15.80;6.73;;;;;;;16.71;100.00;-19600.50;5086968;28;20468;-70
2021/07/27 03:47:22;;;;;;;14.77;6.73;;;;;;;16.72;100.00;-19600.75;5086379;28;20645;-70
2021/07/27 03:49:50;;;;;;;14.37;6.67;;;;;;;16.76;100.00;-19601.81;5085343;28;20114;-70
2021/07/27 03:52:16;;;;;;;15.67;7.10;;;;;;;16.79;100.00;-19602.59;5086069;28;20645;-70
2021/07/27 03:54:42;;;;;;;16.83;7.23;;;;;;;16.77;100.00;-19602.06;5086445;28;20047;-70
2021/07/27 03:57:07;;;;;;;15.37;6.97;;;;;;;16.80;100.00;-19602.84;5083586;28;20031;-70
2021/07/27 03:59:33;;;;;;;20.23;7.60;;;;;;;16.80;100.00;-19602.84;5086671;28;20024;-70
2021/07/27 04:02:00;;;;;;;16.03;8.10;;;;;;;16.81;100.00;-19603.09;5082861;28;20031;-70
2021/07/27 04:04:26;;;;;;;18.60;7.30;;;;;;;16.80;100.00;-19602.84;5083330;28;20074;-70
2021/07/27 04:06:52;;;;;;;16.47;7.77;;;;;;;16.83;100.00;-19603.63;5083020;28;20056;-70
2021/07/27 04:09:17;;;;;;;16.67;7.37;;;;;;;16.82;100.00;-19603.38;5085322;28;20030;-70
2021/07/27 04:11:43;;;;;;;17.33;7.80;;;;;;;16.81;100.00;-19602.97;5082727;28;20028;-70
2021/07/27 04:14:11;;;;;;;17.77;8.07;;;;;;;16.84;100.00;-19603.75;5084150;28;20030;-70
2021/07/27 04:16:38;;;;;;;19.50;8.07;;;;;;;16.92;100.00;-19605.97;5082992;28;20635;-70
2021/07/27 04:19:04;;;;;;;24.27;9.00;;;;;;;16.97;100.00;-19607.28;5082982;28;20550;-70
2021/07/27 04:21:30;;;;;;;19.03;7.97;;;;;;;17.00;100.00;-19607.94;5082399;28;20511;-70
2021/07/27 04:23:59;;;;;;;17.57;7.87;;;;;;;17.03;100.00;-19608.72;5091011;28;20056;-70
2021/07/27 04:26:25;;;;;;;18.20;8.30;;;;;;;17.14;100.00;-19611.47;5082424;28;20103;-70
2021/07/27 04:28:50;;;;;;;17.77;8.20;;;;;;;17.23;100.00;-19613.94;5094256;28;20116;-70
2021/07/27 04:31:16;;;;;;;18.17;8.33;;;;;;;17.25;100.00;-19614.47;5081995;28;20039;-70
2021/07/27 04:33:42;;;;;;;18.73;8.50;;;;;;;17.28;100.00;-19615.13;5082221;28;20496;-70
2021/07/27 04:36:11;;;;;;;21.90;9.27;;;;;;;17.37;100.00;-19617.47;5082917;28;20016;-70
2021/07/27 04:38:37;;;;;;;24.27;10.20;;;;;;;17.47;100.00;-19620.06;5091355;28;20020;-70
2021/07/27 04:41:07;;;;;;;24.90;11.30;;;;;;;17.57;100.00;-19622.69;5082569;28;20036;-70
2021/07/27 04:43:34;;;;;;;29.33;11.23;;;;;;;17.62;100.00;-19623.72;5084723;28;20024;-70
2021/07/27 04:46:01;;;;;;;22.67;11.60;;;;;;;17.70;100.00;-19625.81;5082516;28;20024;-70
2021/07/27 04:48:27;;;;;;;26.20;12.03;;;;;;;17.79;100.00;-19628.16;5089252;28;20024;-70
2021/07/27 04:50:52;;;;;;;26.43;11.50;;;;;;;17.81;100.00;-19628.81;5078349;28;20031;-72
2021/07/27 04:53:22;;;;;;;25.80;11.50;;;;;;;17.84;100.00;-19629.47;5086416;28;20397;-72
2021/07/27 04:55:48;;;;;;;26.57;11.70;;;;;;;17.87;100.00;-19630.25;5085092;28;20024;-73
2021/07/27 04:58:13;;;;;;;26.63;11.90;;;;;;;17.87;100.00;-19630.25;5090858;28;20059;-72
2021/07/27 05:00:39;;;;;;;24.13;10.87;;;;;;;17.90;100.00;-19631.03;5086479;28;20044;-72
2021/07/27 05:03:04;;;;;;;26.23;11.07;;;;;;;17.94;100.00;-19631.97;5084376;28;20089;-73
2021/07/27 05:05:30;;;;;;;27.23;12.23;;;;;;;17.98;100.00;-19633.13;5086484;28;20023;-73
2021/07/27 05:07:58;;;;;;;26.53;11.60;;;;;;;17.99;100.00;-19633.38;5089025;28;20282;-73
2021/07/27 05:10:24;;;;;;;25.97;12.17;;;;;;;18.01;100.00;-19633.91;5086550;28;20108;-73
2021/07/27 05:12:49;;;;;;;24.73;11.33;;;;;;;17.98;100.00;-19633.13;5086071;28;20457;-73
2021/07/27 05:15:15;;;;;;;27.67;12.13;;;;;;;17.93;100.00;-19631.69;5085112;28;20051;-73
2021/07/27 05:17:47;;;;;;;28.30;11.93;;;;;;;17.95;100.00;-19632.34;5087755;28;20035;-70
2021/07/27 05:20:13;;;;;;;23.50;10.43;;;;;;;17.93;100.00;-19631.81;5071425;28;20024;-70
2021/07/27 05:22:39;;;;;;;24.13;10.93;;;;;;;17.91;100.00;-19631.31;5085524;28;20178;-70
2021/07/27 05:25:05;;;;;;;27.90;12.50;;;;;;;17.93;100.00;-19631.81;5084805;28;20354;-70
2021/07/27 05:27:35;;;;;;;27.93;12.57;;;;;;;17.96;100.00;-19632.59;5084966;28;20027;-70
2021/07/27 05:30:01;;;;;;;29.97;12.20;;;;;;;17.95;100.00;-19632.34;5085095;28;20080;-70
2021/07/27 05:32:27;;;;;;;27.53;12.17;;;;;;;18.02;100.00;-19634.16;5083820;28;20035;-70
2021/07/27 05:34:53;;;;;;;31.23;12.27;;;;;;;18.06;100.00;-19635.09;5072648;28;20375;-70
2021/07/27 05:37:19;;;;;;;26.87;11.90;;;;;;;18.13;100.00;-19636.91;5087569;28;20403;-70
2021/07/27 05:39:45;;;;;;;27.00;11.43;;;;;;;18.12;100.00;-19636.78;5085816;28;20077;-70
2021/07/27 05:42:10;;;;;;;26.70;12.17;;;;;;;18.11;100.00;-19636.50;5086512;28;20391;-70
2021/07/27 05:44:36;;;;;;;27.27;11.87;;;;;;;18.14;100.00;-19637.28;5085581;28;20024;-70
2021/07/27 05:47:02;;;;;;;29.80;12.10;;;;;;;18.24;100.00;-19639.66;5085718;28;20404;-70
2021/07/27 05:49:28;;;;;;;25.93;11.77;;;;;;;18.32;100.00;-19641.88;5097961;28;20107;-70
2021/07/27 05:51:54;;;;;;;29.27;12.60;;;;;;;18.34;100.00;-19642.25;5085732;28;20030;-70
2021/07/27 05:54:20;;;;;;;31.60;12.53;;;;;;;18.41;100.00;-19644.06;5097350;28;20024;-70
2021/07/27 05:56:47;;;;;;;26.37;11.40;;;;;;;18.38;100.00;-19643.44;5085236;28;20077;-70
2021/07/27 05:59:14;;;;;;;27.57;10.70;;;;;;;18.42;100.00;-19644.47;5096489;28;20028;-70
2021/07/27 06:01:39;;;;;;;23.93;11.23;;;;;;;18.41;100.00;-19644.06;5085192;28;20091;-70
2021/07/27 06:04:05;;;;;;;26.67;10.83;;;;;;;18.39;100.00;-19643.56;5089516;28;20116;-70
2021/07/27 06:06:31;;;;;;;27.23;10.57;;;;;;;18.39;100.00;-19643.56;5083881;28;20027;-70
2021/07/27 06:09:01;;;;;;;24.87;10.53;;;;;;;18.40;100.00;-19643.81;5089389;28;20058;-71
2021/07/27 06:11:26;;;;;;;23.60;10.77;;;;;;;18.47;100.00;-19645.63;5084677;28;20081;-71
2021/07/27 06:13:52;;;;;;;22.00;10.00;;;;;;;18.62;100.00;-19649.53;5093429;28;20027;-71
2021/07/27 06:16:17;;;;;;;23.53;10.70;;;;;;;18.69;100.00;-19651.38;5084530;28;20055;-71
2021/07/27 06:18:43;;;;;;;21.43;9.27;;;;;;;18.73;100.00;-19652.41;5093097;28;20103;-71
2021/07/27 06:21:10;;;;;;;23.90;9.93;;;;;;;18.79;100.00;-19653.84;5084802;28;20480;-71
2021/07/27 06:23:36;;;;;;;24.20;10.33;;;;;;;18.91;100.00;-19656.84;5092110;28;20032;-71
2021/07/27 06:26:05;;;;;;;24.40;10.67;;;;;;;18.94;100.00;-19657.63;5084583;28;20494;-71
2021/07/27 06:28:31;;;;;;;24.33;11.07;;;;;;;18.92;100.00;-19657.09;5090974;28;20024;-71
2021/07/27 06:30:57;;;;;;;23.27;9.63;;;;;;;18.80;100.00;-19653.97;5084588;28;20028;-71
2021/07/27 06:33:23;;;;;;;26.23;10.10;;;;;;;18.72;100.00;-19652.16;5090298;28;20043;-71
2021/07/27 06:35:55;;;;;;;27.70;11.27;;;;;;;18.68;100.00;-19651.13;5084287;28;20046;-71
2021/07/27 06:38:20;;;;;;;24.95;11.07;;;;;;;18.78;100.00;-19653.47;5096105;28;20111;-71
2021/07/27 06:40:46;;;;;;;28.53;11.13;;;;;;;18.84;100.00;-19655.03;5085803;28;20119;-71
2021/07/27 06:43:11;;;;;;;28.48;11.60;;;;;;;18.85;100.00;-19655.28;5094690;28;20039;-71
2021/07/27 06:45:37;;;;;;;28.90;11.53;;;;;;;18.68;100.00;-19651.00;5086206;28;20098;-71
2021/07/27 06:48:02;;;;;;;24.77;10.33;;;;;;;18.62;100.00;-19649.53;5090264;28;20072;-71
2021/07/27 06:50:28;;;;;;;29.30;11.70;;;;;;;18.68;100.00;-19651.00;5081993;28;20103;-71
2021/07/27 06:52:53;;;;;;;27.47;10.77;;;;;;;18.75;100.00;-19652.81;5091629;28;20035;-71
2021/07/27 06:55:20;;;;;;;28.53;11.43;;;;;;;18.88;100.00;-19656.06;5085822;28;20024;-71
2021/07/27 06:57:45;;;;;;;25.80;10.63;;;;;;;18.78;100.00;-19653.59;5090499;28;20714;-71
2021/07/27 07:00:12;;;;;;;26.87;11.40;;;;;;;18.78;100.00;-19653.59;5086412;28;20024;-71
2021/07/27 07:02:37;;;;;;;27.40;11.30;;;;;;;18.73;100.00;-19652.28;5089168;28;20817;-71
2021/07/27 07:05:04;;;;;;;26.27;10.47;;;;;;;18.81;100.00;-19654.25;5083809;28;20034;-71
2021/07/27 07:07:29;;;;;;;24.10;11.03;;;;;;;18.84;100.00;-19655.03;5087377;28;20023;-71
2021/07/27 07:09:54;;;;;;;27.37;11.03;;;;;;;18.82;100.00;-19654.63;5085974;28;20023;-71
2021/07/27 07:12:20;;;;;;;26.80;12.00;;;;;;;18.89;100.00;-19656.31;5086485;28;20035;-71
2021/07/27 07:14:46;;;;;;;25.93;11.37;;;;;;;18.87;100.00;-19655.81;5085754;28;20052;-71
2021/07/27 07:17:12;;;;;;;27.43;10.77;;;;;;;18.84;100.00;-19655.03;5084949;28;20020;-71
2021/07/27 07:19:37;;;;;;;26.75;11.85;;;;;;;18.88;100.00;-19656.06;5085682;28;20024;-71
2021/07/27 07:22:03;;;;;;;26.90;12.00;;;;;;;18.92;100.00;-19657.09;5084506;28;20045;-71
2021/07/27 07:24:29;;;;;;;26.47;10.77;;;;;;;18.90;100.00;-19656.59;5085681;28;20103;-71
2021/07/27 07:26:54;;;;;;;28.93;11.77;;;;;;;18.85;100.00;-19655.41;5087392;28;20016;-71
2021/07/27 07:29:23;;;;;;;26.03;11.47;;;;;;;18.82;100.00;-19654.63;5085285;28;20035;-71
2021/07/27 07:31:48;;;;;;;23.17;10.53;;;;;;;18.69;100.00;-19651.38;5088448;28;20654;-71
2021/07/27 07:34:16;;;;;;;29.07;12.80;;;;;;;18.63;100.00;-19649.81;5085215;28;20038;-71
2021/07/27 07:36:41;;;;;;;32.57;12.47;;;;;;;18.64;100.00;-19649.94;5083125;28;20476;-71
2021/07/27 07:39:07;;;;;;;33.30;12.00;;;;;;;18.65;100.00;-19650.19;5083370;28;20039;-71
2021/07/27 07:41:32;;;;;;;29.83;12.23;;;;;;;18.66;100.00;-19650.59;5083365;28;20612;-71
2021/07/27 07:43:58;;;;;;;25.53;11.40;;;;;;;18.68;100.00;-19651.13;5095812;28;20032;-71
2021/07/27 07:46:23;;;;;;;29.13;11.43;;;;;;;18.90;100.00;-19656.59;5083142;28;20050;-71
2021/07/27 07:48:49;;;;;;;28.73;12.17;;;;;;;19.24;100.00;-19665.31;5094417;28;20511;-71
2021/07/27 07:51:17;;;;;;;25.52;11.07;;;;;;;19.81;100.00;-19680.03;5083260;28;20044;-71
2021/07/27 07:53:43;;;;;;;27.13;11.23;;;;;;;21.19;100.00;-19715.09;5089767;28;20035;-70
2021/07/27 07:56:11;;;;;;;20.33;10.10;;;;;;;22.06;100.00;-19737.44;5083051;28;20019;-70
2021/07/27 07:58:37;;;;;;;22.23;9.18;;;;;;;22.62;100.00;-19751.69;5091907;28;20020;-70
2021/07/27 08:01:07;;;;;;;23.10;9.05;;;;;;;22.68;100.00;-19753.25;5083006;28;20701;-70
2021/07/27 08:03:32;;;;;;;19.17;9.32;;;;;;;22.06;100.00;-19737.44;5087497;28;20120;-70
2021/07/27 08:05:58;;;;;;;18.73;8.40;;;;;;;21.87;100.00;-19732.50;5082856;28;20024;-71
2021/07/27 08:08:23;;;;;;;18.02;8.73;;;;;;;22.51;100.00;-19748.84;5088925;28;20107;-70
2021/07/27 08:10:49;;;;;;;14.55;7.35;;;;;;;23.50;100.00;-19774.09;5082821;28;20032;-70
2021/07/27 08:13:14;;;;;;;16.65;8.25;;;;;;;23.31;100.00;-19769.31;5088251;28;20028;-70
2021/07/27 08:15:40;;;;;;;16.40;7.75;;;;;;;22.16;100.00;-19740.03;5082507;28;20052;-71
2021/07/27 08:18:05;;;;;;;16.55;7.93;;;;;;;21.75;100.00;-19729.41;5086459;28;20040;-70
2021/07/27 08:20:31;;;;;;;19.73;8.75;;;;;;;21.47;100.00;-19722.38;5082557;28;20095;-70
2021/07/27 08:22:58;;;;;;;16.33;7.72;;;;;;;21.02;100.00;-19710.81;5086551;28;20043;-70
2021/07/27 08:25:24;;;;;;;18.52;8.23;;;;;;;21.10;100.00;-19712.91;5082210;28;20082;-71
2021/07/27 08:27:50;;;;;;;17.70;7.60;;;;;;;22.14;100.00;-19739.50;5085588;28;20516;-70
2021/07/27 08:30:17;;;;;;;19.90;8.55;;;;;;;21.93;100.00;-19734.06;5081732;28;20035;-70
2021/07/27 08:32:47;;;;;;;17.17;8.45;;;;;;;21.71;100.00;-19728.34;5084319;28;20032;-70
2021/07/27 08:35:14;;;;;;;17.00;8.30;;;;;;;23.35;100.00;-19770.22;5082357;28;20099;-70
2021/07/27 08:37:39;;;;;;;19.15;8.45;;;;;;;24.52;100.00;-19800.09;5087386;28;20051;-71
2021/07/27 08:40:06;;;;;;;22.55;8.20;;;;;;;24.26;100.00;-19793.38;5089105;28;20046;-71
2021/07/27 08:42:34;;;;;;;16.73;8.68;;;;;;;22.91;100.00;-19759.09;5083917;28;20031;-71
2021/07/27 08:45:03;;;;;;;16.17;8.48;;;;;;;24.08;100.00;-19788.72;5079364;28;20061;-71
2021/07/27 08:47:31;;;;;;;16.88;8.25;;;;;;;24.86;100.00;-19808.63;5085874;28;20179;-71
2021/07/27 08:49:59;;;;;;;17.10;8.57;;;;;;;23.62;100.00;-19777.09;5088667;28;20048;-71
2021/07/27 08:52:24;;;;;;;18.15;8.50;;;;;;;23.18;100.00;-19765.94;5085610;28;20036;-71
2021/07/27 08:54:50;;;;;;;16.70;7.90;;;;;;;23.62;100.00;-19777.09;5089266;28;20020;-71
2021/07/27 08:57:15;;;;;;;15.23;7.72;;;;;;;23.43;100.00;-19772.16;5084439;28;20020;-71
2021/07/27 08:59:42;;;;;;;17.48;8.18;;;;;;;23.12;100.00;-19764.41;5088776;28;20028;-71
2021/07/27 09:02:07;;;;;;;16.65;8.10;;;;;;;22.91;100.00;-19758.97;5083617;28;20633;-71
2021/07/27 09:04:33;;;;;;;18.35;8.10;;;;;;;22.92;100.00;-19759.22;5085787;28;20488;-71
2021/07/27 09:07:05;;;;;;;18.98;8.23;;;;;;;22.82;100.00;-19756.75;5081981;28;20024;-71
2021/07/27 09:09:35;;;;;;;19.77;7.70;;;;;;;22.47;100.00;-19747.94;5076543;28;20024;-71
2021/07/27 09:12:03;;;;;;;17.65;7.80;;;;;;;23.75;100.00;-19780.44;5081974;28;20027;-71
2021/07/27 09:14:29;;;;;;;20.33;8.52;;;;;;;24.45;100.00;-19798.28;5088019;28;20721;-71
2021/07/27 09:16:57;;;;;;;17.42;8.82;;;;;;;23.52;100.00;-19774.50;5082039;28;20399;-71
2021/07/27 09:19:23;;;;;;;17.73;7.88;;;;;;;23.84;100.00;-19782.78;5089027;28;20380;-71
2021/07/27 09:21:49;;;;;;;16.13;8.55;;;;;;;24.47;96.66;-19798.81;5081666;28;20040;-71
2021/07/27 09:24:24;;;;;;;16.75;8.57;;;;;;;23.48;100.00;-19773.59;5087933;28;20027;-70
2021/07/27 09:27:26;;;;;;;17.75;8.38;;;;;;;23.42;100.00;-19771.91;5082069;28;20030;-71
2021/07/27 09:29:51;;;;;;;18.00;8.00;;;;;;;24.13;100.00;-19790.03;5056575;28;20047;-71
2021/07/27 09:32:19;;;;;;;15.07;8.10;;;;;;;25.18;89.51;-19816.66;5084417;28;20194;-71
2021/07/27 09:34:45;;;;;;;18.23;8.18;;;;;;;25.24;85.56;-19818.19;5081832;28;20024;-71
2021/07/27 09:37:11;;;;;;;18.92;8.55;;;;;;;24.98;85.64;-19811.72;5083497;28;20028;-71
2021/07/27 09:39:37;;;;;;;19.55;8.23;;;;;;;25.14;81.13;-19815.75;5092967;28;20487;-71
2021/07/27 09:42:08;;;;;;;19.80;8.40;;;;;;;23.92;90.60;-19784.84;5084381;28;20075;-71
2021/07/27 09:44:35;;;;;;;18.48;8.55;;;;;;;23.75;99.24;-19780.44;5095924;28;20607;-71
2021/07/27 09:47:02;;;;;;;17.17;7.93;;;;;;;24.47;89.92;-19798.81;5085559;28;20063;-71
2021/07/27 09:49:28;;;;;;;19.67;8.90;;;;;;;24.41;91.77;-19797.25;5095160;28;20024;-71
2021/07/27 09:51:56;;;;;;;15.55;7.90;;;;;;;24.83;81.59;-19807.84;5085312;28;20053;-71
2021/07/27 09:54:23;;;;;;;16.67;7.53;;;;;;;25.47;79.39;-19824.13;5094166;28;20031;-71
2021/07/27 09:56:50;;;;;;;18.70;8.45;;;;;;;24.97;79.60;-19811.47;5085145;28;20016;-71
2021/07/27 09:59:17;;;;;;;16.75;7.85;;;;;;;25.20;90.34;-19817.16;5092973;28;20304;-71
2021/07/27 10:01:48;;;;;;;14.52;8.20;;;;;;;24.91;82.62;-19809.78;5084906;28;20087;-71
2021/07/27 10:04:21;;;;;;;16.13;8.50;;;;;;;24.36;88.87;-19795.97;5089728;28;20031;-71
2021/07/27 10:06:48;;;;;;;15.30;7.32;;;;;;;25.54;86.02;-19825.94;5085251;28;20047;-71
2021/07/27 10:09:26;;;;;;;13.32;7.20;;;;;;;25.71;75.93;-19830.19;5090524;28;20032;-71
2021/07/27 10:11:52;;;;;;;12.88;6.40;;;;;;;26.49;70.27;-19849.94;5085087;28;20028;-71
2021/07/27 10:14:18;;;;;;;13.45;6.70;;;;;;;25.95;67.75;-19836.25;5088936;28;20059;-71
2021/07/27 10:16:45;;;;;;;11.90;6.45;;;;;;;24.97;69.94;-19811.47;5085056;28;20030;-71
2021/07/27 10:19:21;;;;;;;12.95;6.07;;;;;;;24.50;74.78;-19799.59;5087713;28;20031;-71
2021/07/27 10:22:06;;;;;;;11.00;5.53;;;;;;;25.17;69.78;-19816.50;5084944;28;20024;-71
2021/07/27 10:24:49;;;;;;;10.38;5.10;;;;;;;26.33;62.35;-19845.94;5083909;28;20039;-71
2021/07/27 10:27:21;;;;;;;9.10;4.63;;;;;;;25.32;66.70;-19820.25;5085435;28;20024;-71
2021/07/27 10:29:47;;;;;;;11.45;5.30;;;;;;;24.53;70.71;-19800.38;5084739;28;20419;-71
2021/07/27 10:32:22;;;;;;;10.30;5.43;;;;;;;24.37;73.28;-19796.22;5086652;28;20436;-71
2021/07/27 10:34:48;;;;;;;11.60;5.72;;;;;;;25.36;71.56;-19821.41;5094474;28;20099;-71
2021/07/27 10:37:17;;;;;;;10.02;5.07;;;;;;;24.83;75.62;-19807.84;5086504;28;20115;-71
2021/07/27 10:39:59;;;;;;;10.90;5.50;;;;;;;27.07;67.92;-19864.63;5094437;28;20048;-71
2021/07/27 10:42:37;;;;;;;9.90;5.20;;;;;;;26.83;59.37;-19858.56;5088122;28;20714;-71
2021/07/27 10:45:03;;;;;;;9.52;4.65;;;;;;;25.99;62.43;-19837.41;5087138;28;20477;-71
2021/07/27 10:47:28;;;;;;;12.10;4.82;;;;;;;25.68;68.52;-19829.41;5088384;28;20064;-71
2021/07/27 10:50:06;;;;;;;10.50;4.97;;;;;;;25.00;68.62;-19812.25;5090494;28;20063;-71
2021/07/27 10:52:32;;;;;;;10.15;5.53;;;;;;;25.27;73.00;-19818.97;5088213;28;20423;-71
2021/07/27 10:54:59;;;;;;;12.18;5.32;;;;;;;24.97;69.92;-19811.47;5088784;28;20069;-71
2021/07/27 10:57:34;;;;;;;9.13;4.97;;;;;;;24.75;73.86;-19805.78;5087775;28;20054;-71
2021/07/27 11:00:01;;;;;;;9.18;5.30;;;;;;;24.60;72.18;-19801.91;5087743;28;20184;-71
2021/07/27 11:02:26;;;;;;;11.93;5.18;;;;;;;25.18;70.18;-19816.66;5087790;28;20050;-71
2021/07/27 11:04:51;;;;;;;10.02;5.32;;;;;;;25.18;67.20;-19816.66;5084928;28;20584;-71
2021/07/27 11:07:18;;;;;;;9.60;5.68;;;;;;;25.29;68.72;-19819.47;5086558;28;20036;-71
2021/07/27 11:09:52;;;;;;;8.95;5.20;;;;;;;25.53;69.79;-19825.69;5087156;28;20115;-71
2021/07/27 11:12:35;;;;;;;9.45;5.05;;;;;;;25.37;69.82;-19821.56;5086399;28;20167;-71
2021/07/27 11:15:21;;;;;;;10.80;4.80;;;;;;;25.46;69.33;-19823.75;5069959;28;20115;-71
2021/07/27 11:18:05;;;;;;;9.38;4.80;;;;;;;25.24;71.89;-19818.19;5087624;28;20032;-71
2021/07/27 11:20:36;;;;;;;8.88;4.75;;;;;;;25.95;67.27;-19836.41;5083726;28;20028;-71
2021/07/27 11:23:09;;;;;;;7.22;4.43;;;;;;;25.77;64.61;-19831.63;5085981;28;20028;-71
2021/07/27 11:25:35;;;;;;;10.07;4.70;;;;;;;25.96;67.13;-19836.53;5086682;28;20035;-71
2021/07/27 11:28:11;;;;;;;9.75;4.90;;;;;;;25.16;69.04;-19816.25;5085551;28;20028;-72